sensor_id;sensor_type;location;lat;lon;timestamp;pressure;altitude;pressure_sealevel;temperature;humidity
49102;BME280;34913;47.520;19.186;2023-03-20T00:01:09;99925.22;;;8.11;60.67
49102;BME280;34913;47.520;19.186;2023-03-20T00:03:35;99933.59;;;8.05;60.81
49102;BME280;34913;47.520;19.186;2023-03-20T00:06:01;99929.16;;;8.05;60.85
49102;BME280;34913;47.520;19.186;2023-03-20T00:08:26;99931.91;;;8.04;60.41
49102;BME280;34913;47.520;19.186;2023-03-20T00:10:52;99926.69;;;7.91;60.56
49102;BME280;34913;47.520;19.186;2023-03-20T00:13:24;99918.47;;;7.83;61.01
49102;BME280;34913;47.520;19.186;2023-03-20T00:15:52;99923.47;;;7.75;61.26
49102;BME280;34913;47.520;19.186;2023-03-20T00:18:20;99918.06;;;7.76;61.21
49102;BME280;34913;47.520;19.186;2023-03-20T00:20:48;99919.22;;;7.72;61.39
49102;BME280;34913;47.520;19.186;2023-03-20T00:23:15;99920.19;;;7.71;61.48
49102;BME280;34913;47.520;19.186;2023-03-20T00:25:42;99917.56;;;7.71;61.52
49102;BME280;34913;47.520;19.186;2023-03-20T00:30:58;99916.19;;;7.66;62.25
49102;BME280;34913;47.520;19.186;2023-03-20T00:33:24;99916.84;;;7.56;62.78
49102;BME280;34913;47.520;19.186;2023-03-20T00:35:51;99912.22;;;7.47;63.18
49102;BME280;34913;47.520;19.186;2023-03-20T00:38:16;99918.47;;;7.46;63.21
49102;BME280;34913;47.520;19.186;2023-03-20T00:40:42;99919.84;;;7.39;63.82
49102;BME280;34913;47.520;19.186;2023-03-20T00:43:09;99919.66;;;7.30;64.09
49102;BME280;34913;47.520;19.186;2023-03-20T00:45:36;99913.22;;;7.21;64.55
49102;BME280;34913;47.520;19.186;2023-03-20T00:48:01;99914.28;;;7.06;64.90
49102;BME280;34913;47.520;19.186;2023-03-20T00:50:29;99911.22;;;6.99;64.99
49102;BME280;34913;47.520;19.186;2023-03-20T00:52:55;99915.13;;;6.93;65.74
49102;BME280;34913;47.520;19.186;2023-03-20T00:55:25;99910.81;;;6.92;65.89
49102;BME280;34913;47.520;19.186;2023-03-20T00:57:57;99912.31;;;6.96;65.95
49102;BME280;34913;47.520;19.186;2023-03-20T01:02:52;99913.97;;;6.97;65.85
49102;BME280;34913;47.520;19.186;2023-03-20T01:05:19;99916.09;;;7.05;65.30
49102;BME280;34913;47.520;19.186;2023-03-20T01:07:45;99919.03;;;7.13;65.06
49102;BME280;34913;47.520;19.186;2023-03-20T01:10:11;99911.31;;;7.10;64.90
49102;BME280;34913;47.520;19.186;2023-03-20T01:12:38;99911.44;;;7.09;64.81
49102;BME280;34913;47.520;19.186;2023-03-20T01:15:18;99916.28;;;7.15;64.91
49102;BME280;34913;47.520;19.186;2023-03-20T01:17:45;99919.34;;;7.21;64.36
49102;BME280;34913;47.520;19.186;2023-03-20T01:20:16;99916.59;;;7.23;64.41
49102;BME280;34913;47.520;19.186;2023-03-20T01:22:42;99923.38;;;7.14;65.23
49102;BME280;34913;47.520;19.186;2023-03-20T01:25:08;99917.13;;;7.15;65.19
49102;BME280;34913;47.520;19.186;2023-03-20T01:27:34;99909.00;;;7.18;65.18
49102;BME280;34913;47.520;19.186;2023-03-20T01:29:59;99906.16;;;7.21;64.74
49102;BME280;34913;47.520;19.186;2023-03-20T01:32:25;99914.56;;;7.26;64.43
49102;BME280;34913;47.520;19.186;2023-03-20T01:34:50;99912.38;;;7.20;64.26
49102;BME280;34913;47.520;19.186;2023-03-20T01:37:23;99914.59;;;7.14;64.59
49102;BME280;34913;47.520;19.186;2023-03-20T01:39:49;99906.81;;;7.12;64.74
49102;BME280;34913;47.520;19.186;2023-03-20T01:42:15;99914.50;;;7.15;64.44
49102;BME280;34913;47.520;19.186;2023-03-20T01:44:41;99897.94;;;7.13;64.81
49102;BME280;34913;47.520;19.186;2023-03-20T01:47:16;99896.56;;;7.08;64.12
49102;BME280;34913;47.520;19.186;2023-03-20T01:52:49;99892.13;;;7.08;64.55
49102;BME280;34913;47.520;19.186;2023-03-20T01:55:16;99896.25;;;7.12;64.60
49102;BME280;34913;47.520;19.186;2023-03-20T01:57:42;99890.00;;;7.13;64.38
49102;BME280;34913;47.520;19.186;2023-03-20T02:00:10;99878.63;;;7.00;64.03
49102;BME280;34913;47.520;19.186;2023-03-20T02:02:38;99877.22;;;6.94;64.41
49102;BME280;34913;47.520;19.186;2023-03-20T02:05:09;99877.56;;;6.90;64.67
49102;BME280;34913;47.520;19.186;2023-03-20T02:07:37;99877.56;;;6.90;65.28
49102;BME280;34913;47.520;19.186;2023-03-20T02:10:08;99884.22;;;6.95;65.37
49102;BME280;34913;47.520;19.186;2023-03-20T02:12:34;99880.41;;;6.99;65.71
49102;BME280;34913;47.520;19.186;2023-03-20T02:15:00;99884.66;;;6.89;65.93
49102;BME280;34913;47.520;19.186;2023-03-20T02:17:26;99883.50;;;6.81;66.22
49102;BME280;34913;47.520;19.186;2023-03-20T02:20:09;99888.53;;;6.71;66.37
49102;BME280;34913;47.520;19.186;2023-03-20T02:23:05;99883.78;;;6.63;66.99
49102;BME280;34913;47.520;19.186;2023-03-20T02:41:35;99864.91;;;6.69;67.32
49102;BME280;34913;47.520;19.186;2023-03-20T02:44:07;99866.41;;;6.74;66.79
49102;BME280;34913;47.520;19.186;2023-03-20T02:51:59;99864.25;;;6.79;66.49
49102;BME280;34913;47.520;19.186;2023-03-20T02:54:31;99863.97;;;6.83;66.24
49102;BME280;34913;47.520;19.186;2023-03-20T02:57:30;99861.22;;;6.85;66.54
49102;BME280;34913;47.520;19.186;2023-03-20T03:05:26;99865.84;;;6.94;64.79
49102;BME280;34913;47.520;19.186;2023-03-20T03:07:58;99860.25;;;6.98;64.70
49102;BME280;34913;47.520;19.186;2023-03-20T03:10:29;99862.78;;;7.00;65.11
49102;BME280;34913;47.520;19.186;2023-03-20T03:12:59;99864.81;;;6.96;64.67
49102;BME280;34913;47.520;19.186;2023-03-20T03:15:59;99865.66;;;6.97;64.70
49102;BME280;34913;47.520;19.186;2023-03-20T03:18:19;99862.25;;;7.08;63.72
49102;BME280;34913;47.520;19.186;2023-03-20T03:20:47;99868.78;;;7.02;63.78
49102;BME280;34913;47.520;19.186;2023-03-20T03:23:26;99872.50;;;6.87;64.49
49102;BME280;34913;47.520;19.186;2023-03-20T03:25:54;99874.59;;;6.69;64.61
49102;BME280;34913;47.520;19.186;2023-03-20T03:28:39;99869.94;;;6.47;65.12
49102;BME280;34913;47.520;19.186;2023-03-20T03:31:11;99877.53;;;6.39;65.97
49102;BME280;34913;47.520;19.186;2023-03-20T03:33:40;99870.97;;;6.32;65.80
49102;BME280;34913;47.520;19.186;2023-03-20T03:41:05;99876.88;;;6.23;66.86
49102;BME280;34913;47.520;19.186;2023-03-20T03:43:56;99877.28;;;6.17;66.68
49102;BME280;34913;47.520;19.186;2023-03-20T03:49:06;99876.19;;;6.06;66.87
49102;BME280;34913;47.520;19.186;2023-03-20T03:51:34;99873.31;;;5.97;67.30
49102;BME280;34913;47.520;19.186;2023-03-20T03:54:08;99879.75;;;5.93;67.66
49102;BME280;34913;47.520;19.186;2023-03-20T03:56:36;99882.84;;;5.85;68.62
49102;BME280;34913;47.520;19.186;2023-03-20T03:59:07;99883.97;;;5.81;68.35
49102;BME280;34913;47.520;19.186;2023-03-20T04:01:35;99886.81;;;5.78;68.52
49102;BME280;34913;47.520;19.186;2023-03-20T04:04:03;99893.69;;;5.80;68.12
49102;BME280;34913;47.520;19.186;2023-03-20T04:06:31;99888.44;;;5.66;68.58
49102;BME280;34913;47.520;19.186;2023-03-20T04:08:57;99893.19;;;5.61;69.16
49102;BME280;34913;47.520;19.186;2023-03-20T04:11:25;99896.09;;;5.56;69.38
49102;BME280;34913;47.520;19.186;2023-03-20T04:13:52;99894.03;;;5.47;69.76
49102;BME280;34913;47.520;19.186;2023-03-20T04:16:19;99900.38;;;5.30;70.65
49102;BME280;34913;47.520;19.186;2023-03-20T04:18:45;99904.59;;;5.19;71.16
49102;BME280;34913;47.520;19.186;2023-03-20T04:21:12;99906.28;;;5.20;71.18
49102;BME280;34913;47.520;19.186;2023-03-20T04:23:37;99898.97;;;5.11;71.51
49102;BME280;34913;47.520;19.186;2023-03-20T04:26:03;99898.50;;;5.04;71.93
49102;BME280;34913;47.520;19.186;2023-03-20T04:28:30;99911.16;;;5.12;71.65
49102;BME280;34913;47.520;19.186;2023-03-20T04:30:57;99904.50;;;5.20;71.77
49102;BME280;34913;47.520;19.186;2023-03-20T04:33:24;99905.63;;;5.30;70.90
49102;BME280;34913;47.520;19.186;2023-03-20T04:35:50;99898.00;;;5.26;70.58
49102;BME280;34913;47.520;19.186;2023-03-20T04:38:16;99912.22;;;5.38;70.44
49102;BME280;34913;47.520;19.186;2023-03-20T04:40:43;99912.00;;;5.41;69.94
49102;BME280;34913;47.520;19.186;2023-03-20T04:43:08;99904.94;;;5.41;70.01
49102;BME280;34913;47.520;19.186;2023-03-20T04:45:34;99915.28;;;5.44;69.94
49102;BME280;34913;47.520;19.186;2023-03-20T04:48:00;99916.59;;;5.51;69.94
49102;BME280;34913;47.520;19.186;2023-03-20T04:50:26;99916.47;;;5.53;69.71
49102;BME280;34913;47.520;19.186;2023-03-20T04:52:51;99914.63;;;5.55;69.40
49102;BME280;34913;47.520;19.186;2023-03-20T04:55:17;99908.59;;;5.53;69.64
49102;BME280;34913;47.520;19.186;2023-03-20T04:57:42;99908.78;;;5.50;69.61
49102;BME280;34913;47.520;19.186;2023-03-20T05:00:08;99908.91;;;5.48;69.83
49102;BME280;34913;47.520;19.186;2023-03-20T05:02:35;99911.41;;;5.50;69.51
49102;BME280;34913;47.520;19.186;2023-03-20T05:05:00;99905.22;;;5.51;69.67
49102;BME280;34913;47.520;19.186;2023-03-20T05:07:26;99910.69;;;5.48;69.55
49102;BME280;34913;47.520;19.186;2023-03-20T05:09:51;99913.31;;;5.48;69.39
49102;BME280;34913;47.520;19.186;2023-03-20T05:12:16;99918.38;;;5.51;69.49
49102;BME280;34913;47.520;19.186;2023-03-20T05:14:42;99929.38;;;5.57;69.05
49102;BME280;34913;47.520;19.186;2023-03-20T05:17:07;99920.91;;;5.52;69.00
49102;BME280;34913;47.520;19.186;2023-03-20T05:19:33;99926.94;;;5.54;69.18
49102;BME280;34913;47.520;19.186;2023-03-20T05:21:58;99928.53;;;5.57;69.19
49102;BME280;34913;47.520;19.186;2023-03-20T05:24:24;99927.69;;;5.56;69.00
49102;BME280;34913;47.520;19.186;2023-03-20T05:26:49;99929.94;;;5.63;69.18
49102;BME280;34913;47.520;19.186;2023-03-20T05:29:15;99933.78;;;5.71;68.96
49102;BME280;34913;47.520;19.186;2023-03-20T05:31:41;99937.88;;;5.75;68.40
49102;BME280;34913;47.520;19.186;2023-03-20T05:34:06;99943.91;;;5.77;68.27
49102;BME280;34913;47.520;19.186;2023-03-20T05:36:31;99937.97;;;5.88;68.04
49102;BME280;34913;47.520;19.186;2023-03-20T05:38:57;99940.25;;;5.94;68.25
49102;BME280;34913;47.520;19.186;2023-03-20T05:41:22;99940.69;;;6.01;67.72
49102;BME280;34913;47.520;19.186;2023-03-20T05:43:48;99934.59;;;6.13;67.72
49102;BME280;34913;47.520;19.186;2023-03-20T05:46:13;99940.97;;;6.23;67.58
49102;BME280;34913;47.520;19.186;2023-03-20T05:48:39;99933.50;;;6.30;67.11
49102;BME280;34913;47.520;19.186;2023-03-20T05:51:04;99936.03;;;6.31;67.22
49102;BME280;34913;47.520;19.186;2023-03-20T05:53:30;99936.19;;;6.42;66.83
49102;BME280;34913;47.520;19.186;2023-03-20T05:55:55;99931.13;;;6.52;67.00
49102;BME280;34913;47.520;19.186;2023-03-20T05:58:21;99933.88;;;6.63;67.05
49102;BME280;34913;47.520;19.186;2023-03-20T06:00:47;99939.06;;;6.78;66.73
49102;BME280;34913;47.520;19.186;2023-03-20T06:03:12;99937.41;;;6.89;65.70
49102;BME280;34913;47.520;19.186;2023-03-20T06:05:38;99935.53;;;7.04;65.82
49102;BME280;34913;47.520;19.186;2023-03-20T06:08:03;99938.66;;;7.22;63.97
49102;BME280;34913;47.520;19.186;2023-03-20T06:10:29;99935.81;;;7.38;62.33
49102;BME280;34913;47.520;19.186;2023-03-20T06:12:56;99949.38;;;7.57;61.56
49102;BME280;34913;47.520;19.186;2023-03-20T06:15:23;99961.91;;;7.79;61.37
49102;BME280;34913;47.520;19.186;2023-03-20T06:17:49;99959.53;;;8.00;61.21
49102;BME280;34913;47.520;19.186;2023-03-20T06:20:15;99957.66;;;8.13;60.13
49102;BME280;34913;47.520;19.186;2023-03-20T06:22:40;99965.88;;;8.21;59.57
49102;BME280;34913;47.520;19.186;2023-03-20T06:25:06;99962.06;;;8.38;58.84
49102;BME280;34913;47.520;19.186;2023-03-20T06:27:32;99971.38;;;8.55;59.43
49102;BME280;34913;47.520;19.186;2023-03-20T06:29:57;99973.66;;;8.59;58.72
49102;BME280;34913;47.520;19.186;2023-03-20T06:32:22;99967.91;;;8.65;57.77
49102;BME280;34913;47.520;19.186;2023-03-20T06:34:48;99970.06;;;8.60;56.65
49102;BME280;34913;47.520;19.186;2023-03-20T06:37:14;99967.50;;;8.48;57.37
49102;BME280;34913;47.520;19.186;2023-03-20T06:39:39;99961.44;;;8.70;57.03
49102;BME280;34913;47.520;19.186;2023-03-20T06:42:05;99963.41;;;8.90;56.68
49102;BME280;34913;47.520;19.186;2023-03-20T06:44:31;99961.31;;;9.17;55.93
49102;BME280;34913;47.520;19.186;2023-03-20T06:46:56;99968.31;;;9.41;54.96
49102;BME280;34913;47.520;19.186;2023-03-20T06:49:22;99967.22;;;9.66;53.62
49102;BME280;34913;47.520;19.186;2023-03-20T06:51:47;99967.31;;;9.75;53.54
49102;BME280;34913;47.520;19.186;2023-03-20T06:54:13;99973.78;;;9.94;53.02
49102;BME280;34913;47.520;19.186;2023-03-20T06:56:38;99969.41;;;10.15;53.32
49102;BME280;34913;47.520;19.186;2023-03-20T06:59:03;99975.66;;;10.37;52.64
49102;BME280;34913;47.520;19.186;2023-03-20T07:01:29;99972.59;;;10.52;52.43
49102;BME280;34913;47.520;19.186;2023-03-20T07:03:54;99976.94;;;10.74;52.86
49102;BME280;34913;47.520;19.186;2023-03-20T07:06:20;99972.63;;;10.94;52.13
49102;BME280;34913;47.520;19.186;2023-03-20T07:08:46;99972.22;;;11.19;50.79
49102;BME280;34913;47.520;19.186;2023-03-20T07:11:12;99970.00;;;11.45;50.73
49102;BME280;34913;47.520;19.186;2023-03-20T07:13:38;99979.22;;;11.51;50.74
49102;BME280;34913;47.520;19.186;2023-03-20T07:16:04;99975.81;;;11.70;50.64
49102;BME280;34913;47.520;19.186;2023-03-20T07:18:30;99986.69;;;11.88;49.85
49102;BME280;34913;47.520;19.186;2023-03-20T07:21:01;99979.75;;;12.16;48.97
49102;BME280;34913;47.520;19.186;2023-03-20T07:23:28;99985.50;;;12.30;49.39
49102;BME280;34913;47.520;19.186;2023-03-20T07:25:53;99975.88;;;12.68;47.80
49102;BME280;34913;47.520;19.186;2023-03-20T07:28:19;99972.22;;;12.60;46.48
49102;BME280;34913;47.520;19.186;2023-03-20T07:30:45;99983.13;;;12.47;46.28
49102;BME280;34913;47.520;19.186;2023-03-20T07:33:10;99978.22;;;12.23;46.67
49102;BME280;34913;47.520;19.186;2023-03-20T07:35:36;99976.97;;;12.17;47.11
49102;BME280;34913;47.520;19.186;2023-03-20T07:38:04;99978.34;;;12.21;46.80
49102;BME280;34913;47.520;19.186;2023-03-20T07:40:30;99968.84;;;12.38;46.45
49102;BME280;34913;47.520;19.186;2023-03-20T07:42:56;99980.50;;;12.56;46.07
49102;BME280;34913;47.520;19.186;2023-03-20T07:45:21;99979.66;;;12.66;46.01
49102;BME280;34913;47.520;19.186;2023-03-20T07:47:47;99982.31;;;12.75;46.07
49102;BME280;34913;47.520;19.186;2023-03-20T07:50:13;99980.06;;;12.80;45.41
49102;BME280;34913;47.520;19.186;2023-03-20T07:52:38;99976.84;;;12.96;44.87
49102;BME280;34913;47.520;19.186;2023-03-20T07:55:04;99966.31;;;12.95;44.12
49102;BME280;34913;47.520;19.186;2023-03-20T07:57:30;99966.75;;;12.90;44.26
49102;BME280;34913;47.520;19.186;2023-03-20T07:59:55;99978.09;;;12.92;44.53
49102;BME280;34913;47.520;19.186;2023-03-20T08:02:21;99969.69;;;12.87;43.82
49102;BME280;34913;47.520;19.186;2023-03-20T08:04:46;99979.38;;;12.88;44.61
49102;BME280;34913;47.520;19.186;2023-03-20T08:07:12;99981.88;;;12.90;44.14
49102;BME280;34913;47.520;19.186;2023-03-20T08:09:37;99974.59;;;12.92;42.97
49102;BME280;34913;47.520;19.186;2023-03-20T08:12:04;99980.44;;;13.14;42.50
49102;BME280;34913;47.520;19.186;2023-03-20T08:14:30;99978.22;;;13.20;43.42
49102;BME280;34913;47.520;19.186;2023-03-20T08:16:56;99980.72;;;13.31;43.85
49102;BME280;34913;47.520;19.186;2023-03-20T08:19:22;99983.72;;;13.55;41.75
49102;BME280;34913;47.520;19.186;2023-03-20T08:21:48;99981.47;;;13.60;41.09
49102;BME280;34913;47.520;19.186;2023-03-20T08:24:14;99983.75;;;13.83;41.10
49102;BME280;34913;47.520;19.186;2023-03-20T08:26:39;99972.53;;;14.07;41.17
49102;BME280;34913;47.520;19.186;2023-03-20T08:29:05;99975.75;;;14.28;40.15
49102;BME280;34913;47.520;19.186;2023-03-20T08:31:30;99982.25;;;14.43;40.36
49102;BME280;34913;47.520;19.186;2023-03-20T08:33:56;99977.88;;;14.70;40.15
49102;BME280;34913;47.520;19.186;2023-03-20T08:36:21;99984.09;;;14.96;39.19
49102;BME280;34913;47.520;19.186;2023-03-20T08:38:48;99982.53;;;15.12;38.91
49102;BME280;34913;47.520;19.186;2023-03-20T08:41:14;99991.97;;;15.24;38.84
49102;BME280;34913;47.520;19.186;2023-03-20T08:43:40;99984.78;;;15.24;39.52
49102;BME280;34913;47.520;19.186;2023-03-20T08:46:06;99992.28;;;15.21;38.50
49102;BME280;34913;47.520;19.186;2023-03-20T08:48:32;99987.56;;;15.15;38.74
49102;BME280;34913;47.520;19.186;2023-03-20T08:50:57;99983.94;;;15.24;39.16
49102;BME280;34913;47.520;19.186;2023-03-20T08:53:22;99992.59;;;15.44;39.77
49102;BME280;34913;47.520;19.186;2023-03-20T08:55:51;99995.00;;;15.55;39.39
49102;BME280;34913;47.520;19.186;2023-03-20T08:58:17;99990.19;;;15.58;38.24
49102;BME280;34913;47.520;19.186;2023-03-20T09:00:43;99987.47;;;15.76;40.16
49102;BME280;34913;47.520;19.186;2023-03-20T09:03:13;99983.31;;;15.82;39.55
49102;BME280;34913;47.520;19.186;2023-03-20T09:05:42;99986.84;;;15.90;38.37
49102;BME280;34913;47.520;19.186;2023-03-20T09:08:07;99988.75;;;15.64;37.47
49102;BME280;34913;47.520;19.186;2023-03-20T09:10:33;99988.59;;;15.66;37.98
49102;BME280;34913;47.520;19.186;2023-03-20T09:12:59;99990.09;;;16.10;37.08
49102;BME280;34913;47.520;19.186;2023-03-20T09:15:25;99996.22;;;16.37;36.83
49102;BME280;34913;47.520;19.186;2023-03-20T09:17:51;100002.25;;;16.47;35.95
49102;BME280;34913;47.520;19.186;2023-03-20T09:20:17;100000.59;;;16.62;35.83
49102;BME280;34913;47.520;19.186;2023-03-20T09:22:42;100002.25;;;16.39;37.29
49102;BME280;34913;47.520;19.186;2023-03-20T09:25:09;100007.13;;;16.52;37.07
49102;BME280;34913;47.520;19.186;2023-03-20T09:27:35;100000.41;;;16.39;36.51
49102;BME280;34913;47.520;19.186;2023-03-20T09:30:01;100008.25;;;16.41;36.81
49102;BME280;34913;47.520;19.186;2023-03-20T09:32:26;99996.50;;;16.26;38.46
49102;BME280;34913;47.520;19.186;2023-03-20T09:34:51;99997.78;;;16.05;37.25
49102;BME280;34913;47.520;19.186;2023-03-20T09:37:17;100001.38;;;16.22;37.15
49102;BME280;34913;47.520;19.186;2023-03-20T09:39:42;99994.69;;;16.34;35.48
49102;BME280;34913;47.520;19.186;2023-03-20T09:42:43;99996.28;;;16.11;36.40
49102;BME280;34913;47.520;19.186;2023-03-20T09:48:28;99988.47;;;16.26;35.76
49102;BME280;34913;47.520;19.186;2023-03-20T09:53:42;99978.50;;;15.94;35.39
49102;BME280;34913;47.520;19.186;2023-03-20T09:56:18;99984.16;;;15.82;35.67
49102;BME280;34913;47.520;19.186;2023-03-20T09:58:53;99988.06;;;15.96;36.95
49102;BME280;34913;47.520;19.186;2023-03-20T10:01:23;99977.06;;;16.15;36.14
49102;BME280;34913;47.520;19.186;2023-03-20T10:03:59;99980.47;;;16.42;35.46
49102;BME280;34913;47.520;19.186;2023-03-20T10:06:26;99987.38;;;16.53;39.55
49102;BME280;34913;47.520;19.186;2023-03-20T10:08:51;99980.34;;;16.52;37.30
49102;BME280;34913;47.520;19.186;2023-03-20T10:22:25;99981.47;;;16.41;35.37
49102;BME280;34913;47.520;19.186;2023-03-20T10:27:58;99993.75;;;16.60;35.28
49102;BME280;34913;47.520;19.186;2023-03-20T10:33:19;99981.44;;;16.25;35.83
49102;BME280;34913;47.520;19.186;2023-03-20T10:38:49;99979.97;;;16.38;36.21
49102;BME280;34913;47.520;19.186;2023-03-20T10:41:20;99974.44;;;16.32;35.84
49102;BME280;34913;47.520;19.186;2023-03-20T10:43:48;99977.47;;;16.37;35.64
49102;BME280;34913;47.520;19.186;2023-03-20T10:46:19;99967.09;;;16.50;35.45
49102;BME280;34913;47.520;19.186;2023-03-20T10:48:57;99980.84;;;16.55;35.41
49102;BME280;34913;47.520;19.186;2023-03-20T10:51:39;99978.88;;;16.73;36.38
49102;BME280;34913;47.520;19.186;2023-03-20T10:54:35;99975.69;;;16.78;36.33
49102;BME280;34913;47.520;19.186;2023-03-20T10:57:02;99968.13;;;16.82;36.03
49102;BME280;34913;47.520;19.186;2023-03-20T10:59:47;99968.66;;;16.93;35.21
49102;BME280;34913;47.520;19.186;2023-03-20T11:02:15;99962.44;;;17.17;34.91
49102;BME280;34913;47.520;19.186;2023-03-20T11:04:42;99966.59;;;17.20;35.05
49102;BME280;34913;47.520;19.186;2023-03-20T11:07:31;99953.53;;;17.25;34.92
49102;BME280;34913;47.520;19.186;2023-03-20T11:12:38;99950.72;;;17.02;35.31
49102;BME280;34913;47.520;19.186;2023-03-20T11:17:40;99946.53;;;16.99;34.93
49102;BME280;34913;47.520;19.186;2023-03-20T11:20:06;99947.38;;;16.84;35.04
49102;BME280;34913;47.520;19.186;2023-03-20T11:22:33;99937.31;;;17.02;36.04
49102;BME280;34913;47.520;19.186;2023-03-20T11:25:02;99934.78;;;17.17;34.28
49102;BME280;34913;47.520;19.186;2023-03-20T11:27:31;99934.06;;;17.39;34.84
49102;BME280;34913;47.520;19.186;2023-03-20T11:30:01;99930.00;;;17.43;35.33
49102;BME280;34913;47.520;19.186;2023-03-20T11:32:34;99926.59;;;17.57;34.43
49102;BME280;34913;47.520;19.186;2023-03-20T11:35:27;99924.38;;;17.69;33.53
49102;BME280;34913;47.520;19.186;2023-03-20T11:38:12;99922.34;;;17.79;33.41
49102;BME280;34913;47.520;19.186;2023-03-20T11:40:38;99925.69;;;17.81;34.07
49102;BME280;34913;47.520;19.186;2023-03-20T11:43:13;99927.75;;;17.71;34.50
49102;BME280;34913;47.520;19.186;2023-03-20T11:45:41;99918.91;;;17.54;34.82
49102;BME280;34913;47.520;19.186;2023-03-20T11:48:16;99906.13;;;17.73;34.24
49102;BME280;34913;47.520;19.186;2023-03-20T11:50:46;99914.56;;;17.93;33.38
49102;BME280;34913;47.520;19.186;2023-03-20T11:53:28;99916.91;;;17.96;33.14
49102;BME280;34913;47.520;19.186;2023-03-20T11:58:34;99921.84;;;17.68;35.00
49102;BME280;34913;47.520;19.186;2023-03-20T12:01:02;99905.06;;;17.82;33.72
49102;BME280;34913;47.520;19.186;2023-03-20T12:06:24;99905.16;;;17.97;33.21
49102;BME280;34913;47.520;19.186;2023-03-20T12:09:00;99903.75;;;18.09;33.83
49102;BME280;34913;47.520;19.186;2023-03-20T12:12:36;99906.06;;;17.81;34.05
49102;BME280;34913;47.520;19.186;2023-03-20T12:14:39;99904.84;;;17.44;34.40
49102;BME280;34913;47.520;19.186;2023-03-20T12:17:29;99895.78;;;17.45;35.08
49102;BME280;34913;47.520;19.186;2023-03-20T12:20:00;99897.31;;;17.48;34.99
49102;BME280;34913;47.520;19.186;2023-03-20T12:22:32;99893.53;;;17.65;34.56
49102;BME280;34913;47.520;19.186;2023-03-20T12:25:06;99889.69;;;17.99;33.32
49102;BME280;34913;47.520;19.186;2023-03-20T12:27:39;99878.66;;;18.17;33.48
49102;BME280;34913;47.520;19.186;2023-03-20T12:30:21;99888.88;;;18.21;34.31
49102;BME280;34913;47.520;19.186;2023-03-20T12:32:59;99883.94;;;17.79;33.69
49102;BME280;34913;47.520;19.186;2023-03-20T12:35:30;99884.06;;;17.85;34.13
49102;BME280;34913;47.520;19.186;2023-03-20T12:37:57;99880.56;;;18.08;33.91
49102;BME280;34913;47.520;19.186;2023-03-20T12:40:50;99873.00;;;18.11;34.12
49102;BME280;34913;47.520;19.186;2023-03-20T12:52:47;99874.38;;;17.76;36.49
49102;BME280;34913;47.520;19.186;2023-03-20T13:01:37;99873.50;;;17.84;35.04
49102;BME280;34913;47.520;19.186;2023-03-20T13:07:23;99859.69;;;17.95;35.04
49102;BME280;34913;47.520;19.186;2023-03-20T13:12:48;99853.88;;;18.06;35.36
49102;BME280;34913;47.520;19.186;2023-03-20T13:21:04;99847.59;;;17.60;36.17
49102;BME280;34913;47.520;19.186;2023-03-20T13:23:55;99850.22;;;17.68;36.46
49102;BME280;34913;47.520;19.186;2023-03-20T13:26:48;99842.69;;;17.72;36.70
49102;BME280;34913;47.520;19.186;2023-03-20T13:29:37;99847.78;;;17.90;36.99
49102;BME280;34913;47.520;19.186;2023-03-20T13:35:27;99844.88;;;17.99;35.69
49102;BME280;34913;47.520;19.186;2023-03-20T13:37:59;99837.81;;;17.98;36.95
49102;BME280;34913;47.520;19.186;2023-03-20T13:40:32;99836.88;;;17.91;36.82
49102;BME280;34913;47.520;19.186;2023-03-20T13:48:39;99837.78;;;18.06;35.72
49102;BME280;34913;47.520;19.186;2023-03-20T13:53:41;99835.78;;;18.00;36.55
49102;BME280;34913;47.520;19.186;2023-03-20T13:56:51;99828.41;;;17.79;36.62
49102;BME280;34913;47.520;19.186;2023-03-20T14:04:38;99825.88;;;17.47;37.57
49102;BME280;34913;47.520;19.186;2023-03-20T14:07:33;99832.84;;;17.56;36.71
49102;BME280;34913;47.520;19.186;2023-03-20T14:13:10;99831.19;;;17.55;37.86
49102;BME280;34913;47.520;19.186;2023-03-20T14:15:38;99833.03;;;17.54;37.17
49102;BME280;34913;47.520;19.186;2023-03-20T14:18:10;99832.31;;;17.61;37.25
49102;BME280;34913;47.520;19.186;2023-03-20T14:20:39;99837.56;;;17.54;37.46
49102;BME280;34913;47.520;19.186;2023-03-20T14:23:06;99829.66;;;17.52;37.01
49102;BME280;34913;47.520;19.186;2023-03-20T14:25:41;99832.72;;;17.49;37.68
49102;BME280;34913;47.520;19.186;2023-03-20T14:33:23;99827.69;;;17.15;38.22
49102;BME280;34913;47.520;19.186;2023-03-20T14:36:10;99820.06;;;17.27;38.50
49102;BME280;34913;47.520;19.186;2023-03-20T14:39:04;99820.63;;;17.22;38.81
49102;BME280;34913;47.520;19.186;2023-03-20T14:47:38;99816.56;;;17.26;38.88
49102;BME280;34913;47.520;19.186;2023-03-20T14:58:02;99816.81;;;17.09;40.30
49102;BME280;34913;47.520;19.186;2023-03-20T15:00:33;99809.06;;;17.14;40.14
49102;BME280;34913;47.520;19.186;2023-03-20T15:03:08;99815.28;;;17.06;40.40
49102;BME280;34913;47.520;19.186;2023-03-20T15:05:37;99814.59;;;17.12;40.84
49102;BME280;34913;47.520;19.186;2023-03-20T15:08:14;99809.41;;;17.11;40.47
49102;BME280;34913;47.520;19.186;2023-03-20T15:10:49;99812.06;;;17.19;40.08
49102;BME280;34913;47.520;19.186;2023-03-20T15:13:16;99799.81;;;17.24;40.63
49102;BME280;34913;47.520;19.186;2023-03-20T15:18:19;99803.84;;;17.20;41.08
49102;BME280;34913;47.520;19.186;2023-03-20T15:20:45;99805.22;;;17.16;40.25
49102;BME280;34913;47.520;19.186;2023-03-20T15:23:10;99797.53;;;17.05;41.03
49102;BME280;34913;47.520;19.186;2023-03-20T15:25:39;99800.75;;;17.00;42.03
49102;BME280;34913;47.520;19.186;2023-03-20T15:28:11;99798.09;;;16.92;41.59
49102;BME280;34913;47.520;19.186;2023-03-20T15:30:38;99800.47;;;16.79;42.03
49102;BME280;34913;47.520;19.186;2023-03-20T15:33:05;99805.16;;;16.77;42.19
49102;BME280;34913;47.520;19.186;2023-03-20T15:35:32;99798.63;;;16.80;41.96